Time;durP1;ratioP1;P1;durP2;ratioP2;P2;SDS_P1;SDS_P2;PMS_P1;PMS_P2;Temp;Humidity;BMP_temperature;BMP_pressure;BME280_temperature;BME280_humidity;BME280_pressure;Samples;Min_cycle;Max_cycle;Signal;HPM_P1;HPM_P2
2022/04/16 00:02:57;;;;;;;30.40;19.00;;;;;;;4.68;100.00;100503.63;5010789;28;20392;-51
2022/04/16 00:05:41;;;;;;;25.50;19.88;;;;;;;4.63;100.00;100512.22;5011586;28;20054;-50
2022/04/16 00:08:28;;;;;;;28.58;20.50;;;;;;;4.53;100.00;100512.97;5016910;28;20512;-51
2022/04/16 00:11:12;;;;;;;28.73;19.55;;;;;;;4.68;100.00;100519.19;5019776;28;20053;-51
2022/04/16 00:13:57;;;;;;;27.23;19.58;;;;;;;4.63;100.00;100520.00;5011057;28;20053;-51
2022/04/16 00:16:41;;;;;;;34.13;19.85;;;;;;;4.65;100.00;100513.97;5011296;28;20062;-50
2022/04/16 00:19:26;;;;;;;32.22;20.48;;;;;;;4.54;100.00;100517.28;5011497;28;20047;-51
2022/04/16 00:22:12;;;;;;;26.23;18.75;;;;;;;4.50;100.00;100519.00;5011287;28;20111;-50
2022/04/16 00:24:57;;;;;;;27.02;17.70;;;;;;;4.65;100.00;100513.97;5011855;28;20701;-51
2022/04/16 00:27:41;;;;;;;27.38;19.65;;;;;;;4.55;100.00;100529.41;5010257;28;20074;-51
2022/04/16 00:30:28;;;;;;;26.25;17.92;;;;;;;4.64;100.00;100535.56;5011453;28;20057;-51
2022/04/16 00:33:13;;;;;;;23.35;18.52;;;;;;;4.72;100.00;100530.47;5022127;28;20862;-51
2022/04/16 00:35:57;;;;;;;23.30;17.25;;;;;;;4.67;100.00;100540.78;5009639;28;20053;-51
2022/04/16 00:38:42;;;;;;;25.38;16.75;;;;;;;4.58;100.00;100532.03;5010553;28;20058;-50
2022/04/16 00:41:27;;;;;;;26.50;17.35;;;;;;;4.44;100.00;100544.84;5016981;28;20053;-51
2022/04/16 00:44:11;;;;;;;24.58;17.27;;;;;;;4.49;100.00;100545.78;5019587;28;20057;-50
2022/04/16 00:46:55;;;;;;;21.48;15.23;;;;;;;4.39;100.00;100542.22;5018771;28;20632;-51
2022/04/16 00:49:40;;;;;;;17.75;13.98;;;;;;;4.48;100.00;100537.97;5027170;28;20045;-50
2022/04/16 00:52:25;;;;;;;20.63;15.30;;;;;;;4.36;100.00;100542.19;5025247;28;20206;-51
2022/04/16 00:55:09;;;;;;;18.75;14.88;;;;;;;4.47;100.00;100549.22;5025821;28;20064;-51
2022/04/16 00:57:55;;;;;;;20.95;14.90;;;;;;;4.52;100.00;100556.22;5027931;28;20539;-51
2022/04/16 01:00:39;;;;;;;20.35;14.82;;;;;;;4.43;100.00;100545.72;5025497;28;20045;-51
2022/04/16 01:03:26;;;;;;;23.38;15.45;;;;;;;4.46;100.00;100543.16;5026161;28;20049;-51
2022/04/16 01:06:15;;;;;;;18.90;13.57;;;;;;;4.40;100.00;100535.31;5026859;28;20038;-50
2022/04/16 01:09:00;;;;;;;17.58;13.35;;;;;;;4.44;100.00;100547.44;5026497;28;20641;-50
2022/04/16 01:11:44;;;;;;;17.75;14.93;;;;;;;4.45;100.00;100551.78;5026227;28;20044;-51
2022/04/16 01:14:29;;;;;;;15.63;12.45;;;;;;;4.57;100.00;100541.53;5027159;28;20048;-51
2022/04/16 01:17:15;;;;;;;18.95;14.10;;;;;;;4.26;100.00;100555.00;5025920;28;20053;-50
2022/04/16 01:20:01;;;;;;;18.23;12.60;;;;;;;4.33;100.00;100567.22;5022286;28;20375;-51
2022/04/16 01:22:50;;;;;;;22.55;12.88;;;;;;;4.37;100.00;100572.44;5027964;28;20041;-51
2022/04/16 01:25:36;;;;;;;20.10;12.90;;;;;;;4.33;100.00;100568.09;5028346;28;20369;-51
2022/04/16 01:28:20;;;;;;;14.85;12.00;;;;;;;4.19;100.00;100561.84;5027299;28;20049;-51
2022/04/16 01:31:04;;;;;;;15.35;9.98;;;;;;;4.32;100.00;100573.25;5027517;28;20050;-50
2022/04/16 01:33:49;;;;;;;16.52;11.27;;;;;;;4.24;100.00;100575.75;5027158;28;20067;-50
2022/04/16 01:36:34;;;;;;;11.95;10.32;;;;;;;4.21;100.00;100573.97;5015065;28;20112;-50
2022/04/16 01:39:19;;;;;;;14.45;11.60;;;;;;;4.19;100.00;100570.50;5027860;28;20057;-50
2022/04/16 01:42:04;;;;;;;14.63;10.75;;;;;;;4.32;100.00;100573.25;5027877;28;20578;-50
2022/04/16 01:44:48;;;;;;;16.23;11.85;;;;;;;4.25;100.00;100577.47;5035855;28;20049;-51
2022/04/16 01:47:36;;;;;;;14.35;11.02;;;;;;;4.20;100.00;100581.75;5009675;28;20046;-51
2022/04/16 01:50:22;;;;;;;15.35;11.00;;;;;;;4.29;100.00;100579.28;5014261;28;20041;-50
2022/04/16 01:53:06;;;;;;;14.13;10.45;;;;;;;4.19;100.00;100580.88;5020801;28;20393;-51
2022/04/16 01:55:51;;;;;;;12.82;10.30;;;;;;;3.96;100.00;100577.09;5017448;28;20049;-50
2022/04/16 01:58:38;;;;;;;12.27;10.00;;;;;;;4.15;100.00;100586.00;5020482;28;20054;-51
2022/04/16 02:01:22;;;;;;;12.25;9.57;;;;;;;4.19;100.00;100590.34;5019531;28;20050;-50
2022/04/16 02:04:07;;;;;;;13.05;10.32;;;;;;;4.06;100.00;100596.22;5018525;28;20112;-50
2022/04/16 02:06:52;;;;;;;18.00;12.43;;;;;;;4.21;100.00;100607.69;5014573;28;20541;-51
2022/04/16 02:09:36;;;;;;;14.32;9.18;;;;;;;4.18;100.00;100605.06;5014757;28;20046;-51
2022/04/16 02:12:20;;;;;;;15.32;10.45;;;;;;;4.06;100.00;100604.88;5012712;28;20053;-51
2022/04/16 02:15:06;;;;;;;11.63;8.57;;;;;;;4.07;100.00;100596.28;5009932;28;20060;-51
2022/04/16 02:17:51;;;;;;;13.27;9.15;;;;;;;4.20;100.00;100607.69;5009455;28;20496;-51
2022/04/16 02:20:36;;;;;;;14.07;9.32;;;;;;;4.17;100.00;100598.13;5013532;28;20058;-51
2022/04/16 02:23:20;;;;;;;14.40;9.65;;;;;;;4.15;100.00;100605.00;5011937;28;20038;-52
2022/04/16 02:26:06;;;;;;;13.48;9.98;;;;;;;4.04;100.00;100596.22;5010328;28;20053;-51
2022/04/16 02:28:51;;;;;;;14.93;10.38;;;;;;;4.08;100.00;100603.19;5015483;28;20061;-50
2022/04/16 02:31:37;;;;;;;15.23;10.95;;;;;;;3.93;100.00;100606.44;5009573;28;20046;-50
2022/04/16 02:34:21;;;;;;;11.88;8.63;;;;;;;4.01;100.00;100614.31;5009425;28;20050;-51
2022/04/16 02:37:06;;;;;;;16.38;10.88;;;;;;;3.96;100.00;100611.69;5010600;28;20172;-51
2022/04/16 02:39:51;;;;;;;13.02;10.45;;;;;;;3.90;100.00;100614.19;5009450;28;20046;-52
2022/04/16 02:42:41;;;;;;;17.13;10.77;;;;;;;3.88;100.00;100622.78;5011682;28;20054;-51
2022/04/16 02:48:29;;;;;;;10.98;9.60;;;;;;;4.08;100.00;100621.34;5011157;28;20492;-51
2022/04/16 02:51:13;;;;;;;11.60;9.43;;;;;;;4.01;100.00;100619.50;5013662;28;20503;-51
2022/04/16 02:53:58;;;;;;;14.32;10.93;;;;;;;3.92;100.00;100633.19;5011964;28;20428;-51
2022/04/16 02:56:43;;;;;;;14.50;9.93;;;;;;;4.03;100.00;100638.56;5013233;28;20123;-51
2022/04/16 02:59:28;;;;;;;11.63;10.13;;;;;;;4.09;100.00;100632.56;5016691;28;20633;-51
2022/04/16 03:02:15;;;;;;;13.40;10.40;;;;;;;4.06;100.00;100638.56;5011866;28;20053;-51
2022/04/16 03:05:00;;;;;;;18.83;11.30;;;;;;;3.97;100.00;100651.44;5011454;28;20057;-51
2022/04/16 03:07:44;;;;;;;15.63;10.52;;;;;;;4.01;100.00;100652.34;5011988;28;20049;-51
2022/04/16 03:10:29;;;;;;;11.95;10.70;;;;;;;4.07;100.00;100660.22;5016512;28;20045;-51
2022/04/16 03:13:14;;;;;;;14.40;10.98;;;;;;;4.11;100.00;100662.00;5027260;28;20057;-51
2022/04/16 03:19:02;;;;;;;16.13;12.48;;;;;;;3.98;100.00;100667.00;5028755;28;20060;-51
2022/04/16 03:21:46;;;;;;;14.25;10.43;;;;;;;4.09;100.00;100672.34;5025335;28;20049;-51
2022/04/16 03:24:31;;;;;;;11.52;10.32;;;;;;;4.13;100.00;100681.94;5026122;28;20041;-51
2022/04/16 03:27:16;;;;;;;13.57;10.25;;;;;;;4.15;100.00;100682.78;5025637;28;20095;-51
2022/04/16 03:30:01;;;;;;;12.48;9.63;;;;;;;4.14;100.00;100683.66;5026996;28;20616;-51
2022/04/16 03:32:49;;;;;;;13.15;9.63;;;;;;;4.05;100.00;100682.66;5013549;28;21416;-50
2022/04/16 03:35:35;;;;;;;13.52;9.60;;;;;;;4.01;100.00;100686.91;5009580;28;20050;-52
2022/04/16 03:38:20;;;;;;;22.70;12.70;;;;;;;3.91;100.00;100683.31;5023998;28;20041;-51
2022/04/16 03:41:05;;;;;;;10.63;8.80;;;;;;;4.04;100.00;100683.50;5027052;28;20072;-51
2022/04/16 03:43:50;;;;;;;10.85;9.73;;;;;;;3.86;100.00;100697.03;5029246;28;20492;-52
2022/04/16 03:46:35;;;;;;;10.63;8.77;;;;;;;3.91;100.00;100690.22;5029044;28;20033;-51
2022/04/16 03:49:19;;;;;;;12.30;8.05;;;;;;;3.91;100.00;100691.09;5029591;28;20072;-51
2022/04/16 03:52:04;;;;;;;13.40;8.52;;;;;;;3.86;100.00;100697.91;5027295;28;20863;-51
2022/04/16 04:00:56;;;;;;;;;;;;;;;4.01;100.00;100702.47;5011443;28;20049;-51
2022/04/16 04:03:40;;;;;;;9.25;7.40;;;;;;;3.79;100.00;100702.97;5016243;28;19928;-51
2022/04/16 04:06:25;;;;;;;10.20;7.88;;;;;;;3.91;100.00;100701.44;5025483;28;20045;-51
2022/04/16 04:09:10;;;;;;;8.15;6.93;;;;;;;3.94;100.00;100705.81;5025354;28;20061;-52
2022/04/16 04:11:54;;;;;;;9.27;7.22;;;;;;;3.95;100.00;100715.34;5021837;28;20081;-51
2022/04/16 04:14:46;;;;;;;8.30;6.70;;;;;;;4.00;100.00;100705.91;5009449;28;20085;-51
2022/04/16 04:17:30;;;;;;;8.20;7.05;;;;;;;3.94;100.00;100703.22;5009993;28;20053;-51
2022/04/16 04:20:14;;;;;;;12.43;7.78;;;;;;;3.89;100.00;100708.31;5010146;28;21432;-51
2022/04/16 04:22:59;;;;;;;12.00;7.60;;;;;;;3.96;100.00;100694.63;5023956;28;20098;-51
2022/04/16 04:25:43;;;;;;;10.10;8.13;;;;;;;3.82;100.00;100696.13;5026563;28;20186;-51
2022/04/16 04:28:28;;;;;;;17.42;8.65;;;;;;;3.82;100.00;100698.72;5011050;28;20061;-51
2022/04/16 04:31:12;;;;;;;12.30;6.85;;;;;;;3.88;100.00;100701.41;5011086;28;20042;-51
2022/04/16 04:33:57;;;;;;;10.13;7.15;;;;;;;3.89;100.00;100700.53;5027266;28;20120;-52
2022/04/16 04:36:41;;;;;;;10.18;5.97;;;;;;;3.96;100.00;100712.78;5028236;28;20069;-50
2022/04/16 04:39:26;;;;;;;13.75;5.93;;;;;;;4.01;100.00;100717.16;5028752;28;20048;-50
2022/04/16 04:42:10;;;;;;;9.82;6.30;;;;;;;3.93;100.00;100714.41;5017395;28;20054;-51
2022/04/16 04:44:56;;;;;;;7.35;5.30;;;;;;;4.03;100.00;100718.94;5012797;28;20045;-51
2022/04/16 04:47:41;;;;;;;9.00;5.80;;;;;;;4.04;100.00;100718.06;5028191;28;20056;-51
2022/04/16 04:50:25;;;;;;;12.25;6.15;;;;;;;4.03;100.00;100724.13;5028111;28;20069;-51
2022/04/16 04:53:10;;;;;;;9.20;6.10;;;;;;;4.01;100.00;100719.75;5028202;28;20908;-51
2022/04/16 04:55:54;;;;;;;7.93;5.68;;;;;;;3.96;100.00;100733.53;5027162;28;20049;-52
2022/04/16 04:58:38;;;;;;;7.85;5.07;;;;;;;3.96;100.00;100732.63;5011230;28;20057;-51
2022/04/16 05:01:23;;;;;;;8.05;5.13;;;;;;;4.08;100.00;100739.72;5011807;28;20076;-51
2022/04/16 05:04:08;;;;;;;13.43;5.93;;;;;;;4.10;100.00;100741.50;5010246;28;20431;-51
2022/04/16 05:06:52;;;;;;;7.35;5.22;;;;;;;4.26;100.00;100754.69;5027030;28;20495;-51
2022/04/16 05:09:37;;;;;;;7.75;4.82;;;;;;;4.26;100.00;100762.47;5026850;28;20045;-51
2022/04/16 05:12:22;;;;;;;7.88;4.57;;;;;;;4.27;100.00;100772.03;5027999;28;20479;-51
2022/04/16 05:15:06;;;;;;;7.95;5.40;;;;;;;4.25;100.00;100777.16;5027644;28;20446;-51
2022/04/16 05:17:51;;;;;;;13.07;7.55;;;;;;;4.19;100.00;100777.06;5028196;28;20376;-50
2022/04/16 05:20:35;;;;;;;5.95;5.25;;;;;;;4.22;100.00;100777.13;5027559;28;20057;-51
2022/04/16 05:23:20;;;;;;;6.63;4.97;;;;;;;4.28;100.00;100778.94;5026456;28;20404;-51
2022/04/16 05:26:07;;;;;;;6.95;4.72;;;;;;;4.27;100.00;100790.19;5014581;28;20060;-51
2022/04/16 05:28:51;;;;;;;10.40;6.45;;;;;;;4.32;100.00;100796.28;5012489;28;20481;-51
2022/04/16 05:31:36;;;;;;;10.15;6.28;;;;;;;4.33;100.00;100782.50;5010709;28;20050;-50
2022/04/16 05:34:22;;;;;;;11.23;7.18;;;;;;;4.34;100.00;100786.84;5010895;28;20058;-51
2022/04/16 05:37:06;;;;;;;11.80;8.10;;;;;;;4.45;100.00;100783.56;5012019;28;20053;-51
2022/04/16 05:39:51;;;;;;;7.93;5.97;;;;;;;4.49;100.00;100799.19;5010901;28;20057;-52
2022/04/16 05:42:40;;;;;;;7.75;4.88;;;;;;;4.30;100.00;100774.66;5010026;28;20058;-51
2022/04/16 05:45:24;;;;;;;10.13;6.53;;;;;;;4.50;100.00;100781.03;5009671;28;20052;-52
2022/04/16 05:48:08;;;;;;;13.95;8.00;;;;;;;4.52;100.00;100788.81;5009859;28;20057;-51
2022/04/16 05:50:53;;;;;;;8.48;4.65;;;;;;;4.66;100.00;100798.56;5009696;28;20049;-51
2022/04/16 05:53:40;;;;;;;8.45;5.13;;;;;;;4.75;100.00;100790.06;5014996;28;20049;-51
2022/04/16 05:56:24;;;;;;;5.03;3.90;;;;;;;4.78;100.00;100818.66;5023016;28;20042;-51
2022/04/16 05:59:08;;;;;;;7.20;4.28;;;;;;;4.80;100.00;100797.88;5023146;28;20049;-52
2022/04/16 06:01:53;;;;;;;7.78;5.20;;;;;;;5.06;100.00;100806.03;5023883;28;20081;-52
2022/04/16 06:04:38;;;;;;;4.80;3.83;;;;;;;5.35;100.00;100817.66;5022317;28;20049;-51
2022/04/16 06:07:22;;;;;;;7.55;4.05;;;;;;;5.76;100.00;100829.41;5023843;28;20084;-52
2022/04/16 06:10:07;;;;;;;4.97;3.97;;;;;;;6.49;100.00;100835.31;5011159;28;20682;-52
2022/04/16 06:12:52;;;;;;;4.57;2.03;;;;;;;6.86;100.00;100832.09;5014379;28;20053;-51
2022/04/16 06:15:39;;;;;;;8.18;4.50;;;;;;;6.64;100.00;100834.56;5024095;28;20776;-51
2022/04/16 06:18:25;;;;;;;5.20;3.10;;;;;;;6.34;100.00;100835.19;5014742;28;20053;-51
2022/04/16 06:21:09;;;;;;;5.05;3.60;;;;;;;6.29;100.00;100839.47;5027419;28;20505;-52
2022/04/16 06:23:53;;;;;;;5.05;4.38;;;;;;;6.77;100.00;100832.91;5024994;28;20049;-52
2022/04/16 06:26:37;;;;;;;4.00;2.58;;;;;;;7.23;100.00;100847.06;5025929;28;20060;-52
2022/04/16 06:29:22;;;;;;;7.05;3.30;;;;;;;7.86;100.00;100852.50;5026054;28;20049;-51
2022/04/16 06:32:07;;;;;;;3.13;1.90;;;;;;;7.45;100.00;100842.84;5026406;28;20067;-52
2022/04/16 06:34:51;;;;;;;3.97;2.80;;;;;;;6.89;100.00;100855.53;5022516;28;20049;-52
2022/04/16 06:37:35;;;;;;;4.57;2.90;;;;;;;6.77;100.00;100861.56;5027023;28;20049;-52
2022/04/16 06:40:21;;;;;;;4.20;2.47;;;;;;;7.17;100.00;100854.00;5028005;28;20049;-53
2022/04/16 06:43:05;;;;;;;4.75;2.08;;;;;;;6.72;100.00;100865.84;5016419;28;20065;-51
2022/04/16 06:45:51;;;;;;;4.82;3.00;;;;;;;7.45;100.00;100855.00;5014283;28;20049;-52
2022/04/16 06:48:35;;;;;;;6.20;3.00;;;;;;;7.35;100.00;100861.03;5016251;28;20093;-52
2022/04/16 06:51:20;;;;;;;7.35;5.25;;;;;;;8.30;100.00;100869.13;5020994;28;20036;-52
2022/04/16 06:54:04;;;;;;;5.90;3.58;;;;;;;8.32;100.00;100870.88;5008928;28;20056;-52
2022/04/16 06:56:49;;;;;;;3.20;1.60;;;;;;;8.81;100.00;100870.91;5024378;28;20053;-52
2022/04/16 06:59:33;;;;;;;3.13;1.23;;;;;;;8.91;100.00;100870.91;5027912;28;20206;-52
2022/04/16 07:02:17;;;;;;;3.92;1.80;;;;;;;9.44;99.87;100876.00;5028404;28;20099;-52
2022/04/16 07:05:03;;;;;;;1.63;1.30;;;;;;;9.23;95.38;100876.03;5027239;28;20037;-52
2022/04/16 07:07:47;;;;;;;2.60;1.30;;;;;;;9.15;93.73;100873.47;5027131;28;20580;-52
2022/04/16 07:10:32;;;;;;;6.70;3.90;;;;;;;8.95;93.35;100870.03;5028081;28;20048;-51
2022/04/16 07:13:16;;;;;;;25.10;12.43;;;;;;;8.25;94.51;100878.69;5022204;28;20053;-52
2022/04/16 07:16:01;;;;;;;24.40;11.60;;;;;;;7.64;94.61;100876.81;5026736;28;20098;-52
2022/04/16 07:18:46;;;;;;;14.95;7.35;;;;;;;8.02;94.60;100889.09;5020019;28;20547;-51
2022/04/16 07:21:30;;;;;;;4.60;3.28;;;;;;;7.79;90.87;100876.84;5010198;28;20045;-52
2022/04/16 07:24:15;;;;;;;4.00;2.83;;;;;;;8.48;90.72;100894.41;5010088;28;20057;-52
2022/04/16 07:27:00;;;;;;;3.10;1.58;;;;;;;8.52;85.41;100875.28;5010228;28;20045;-52
2022/04/16 07:29:46;;;;;;;2.13;1.40;;;;;;;9.08;84.21;100892.66;5017220;28;20380;-53
2022/04/16 07:32:30;;;;;;;2.17;1.25;;;;;;;9.00;86.47;100883.94;5030338;28;20053;-52
2022/04/16 07:35:15;;;;;;;3.72;2.30;;;;;;;8.88;84.11;100893.56;5029704;28;20052;-53
2022/04/16 07:38:00;;;;;;;11.30;9.52;;;;;;;8.66;85.82;100904.88;5027311;28;20747;-52
2022/04/16 07:40:45;;;;;;;4.05;2.30;;;;;;;8.35;85.14;100894.38;5011455;28;20042;-51
2022/04/16 07:43:30;;;;;;;3.25;1.00;;;;;;;8.13;81.65;100909.13;5012992;28;20136;-51
2022/04/16 07:46:18;;;;;;;2.00;1.13;;;;;;;7.60;84.63;100899.38;5025576;28;20053;-52
2022/04/16 07:49:03;;;;;;;3.38;1.40;;;;;;;7.36;85.84;100899.25;5028342;28;20952;-51
2022/04/16 07:51:48;;;;;;;3.30;2.08;;;;;;;7.87;85.89;100902.97;5025756;28;20562;-50
2022/04/16 07:54:33;;;;;;;3.00;1.13;;;;;;;7.88;81.96;100907.31;5014813;28;20521;-51
2022/04/16 07:57:17;;;;;;;2.33;0.80;;;;;;;7.83;81.87;100909.91;5027244;28;20057;-52
2022/04/16 08:00:04;;;;;;;2.78;1.10;;;;;;;8.12;80.97;100914.31;5017637;28;20495;-52
2022/04/16 08:02:56;;;;;;;2.45;1.20;;;;;;;7.78;82.24;100911.63;5014132;28;20037;-52
2022/04/16 08:05:41;;;;;;;2.08;1.00;;;;;;;7.81;83.85;100919.47;5014601;28;20045;-51
2022/04/16 08:08:26;;;;;;;7.55;3.40;;;;;;;7.61;82.92;100908.94;5029669;28;20057;-51
2022/04/16 08:11:11;;;;;;;3.20;1.42;;;;;;;7.38;84.81;100911.44;5030616;28;20075;-51
2022/04/16 08:13:55;;;;;;;2.60;1.67;;;;;;;7.38;83.52;100923.63;5012774;28;20049;-50
2022/04/16 08:16:40;;;;;;;3.22;1.90;;;;;;;7.38;84.84;100914.06;5013022;28;20124;-51
2022/04/16 08:19:25;;;;;;;5.03;3.78;;;;;;;7.33;85.17;100923.56;5029537;28;20140;-51
2022/04/16 08:22:17;;;;;;;12.65;8.10;;;;;;;7.65;84.71;100917.66;5022802;28;20107;-50
2022/04/16 08:28:05;;;;;;;3.35;2.03;;;;;;;7.76;82.95;100926.38;5014602;28;20053;-52
2022/04/16 08:30:51;;;;;;;6.20;4.35;;;;;;;8.19;79.98;100934.38;5014342;28;20714;-51
2022/04/16 08:33:36;;;;;;;8.60;5.07;;;;;;;8.42;79.62;100932.72;5013486;28;20080;-52
2022/04/16 08:36:21;;;;;;;4.28;2.47;;;;;;;7.93;78.84;100937.78;5014857;28;20048;-52
2022/04/16 08:39:06;;;;;;;3.60;1.98;;;;;;;8.66;80.20;100931.84;5015074;28;20088;-52
2022/04/16 08:41:55;;;;;;;11.73;7.95;;;;;;;8.67;80.82;100932.72;5024264;28;20050;-51
2022/04/16 08:44:40;;;;;;;9.00;6.78;;;;;;;9.43;78.25;100928.31;5017815;28;20053;-52
2022/04/16 08:47:24;;;;;;;18.80;13.90;;;;;;;8.91;75.45;100931.88;5026035;28;20412;-52
2022/04/16 08:50:11;;;;;;;12.13;8.07;;;;;;;9.26;76.49;100929.22;5023003;28;20057;-52
2022/04/16 08:52:57;;;;;;;11.40;7.57;;;;;;;9.54;75.67;100930.00;5025404;28;20412;-52
2022/04/16 08:55:42;;;;;;;6.47;5.22;;;;;;;9.66;73.19;100936.09;5024392;28;20048;-51
2022/04/16 08:58:29;;;;;;;3.90;1.50;;;;;;;9.66;74.09;100925.63;5024725;28;20045;-52
2022/04/16 09:01:14;;;;;;;1.50;0.82;;;;;;;9.58;74.54;100936.09;5011869;28;20052;-51
2022/04/16 09:03:59;;;;;;;2.42;1.90;;;;;;;9.66;73.59;100943.94;5022014;28;20435;-52
2022/04/16 09:06:53;;;;;;;5.85;3.50;;;;;;;9.31;74.84;100937.03;5020760;28;20057;-52
2022/04/16 09:09:38;;;;;;;11.18;4.45;;;;;;;8.87;76.81;100936.22;5021298;28;20062;-53
2022/04/16 09:12:23;;;;;;;3.90;2.20;;;;;;;9.41;78.68;100935.28;5023433;28;20387;-51
2022/04/16 09:15:09;;;;;;;6.53;2.72;;;;;;;9.22;74.38;100924.84;5025689;28;20049;-51
2022/04/16 09:18:03;;;;;;;6.97;2.75;;;;;;;9.72;74.34;100934.31;5024521;28;20152;-52
2022/04/16 09:20:47;;;;;;;3.28;1.50;;;;;;;9.93;71.36;100938.56;5018929;28;20049;-51
2022/04/16 09:23:31;;;;;;;8.02;3.97;;;;;;;9.52;71.32;100944.84;5018929;28;20084;-51
2022/04/16 09:26:25;;;;;;;4.32;2.30;;;;;;;10.02;70.24;100946.41;5014563;28;20055;-49
2022/04/16 09:29:12;;;;;;;2.85;1.30;;;;;;;9.81;69.00;100962.19;5022491;28;20057;-52
2022/04/16 09:31:57;;;;;;;1.42;1.27;;;;;;;9.53;70.08;100950.94;4993624;28;20077;-53
2022/04/16 09:34:47;;;;;;;10.90;5.00;;;;;;;9.83;70.13;100953.44;5014210;28;20049;-50
2022/04/16 09:37:33;;;;;;;3.80;1.88;;;;;;;9.87;69.91;100963.91;5010271;28;20046;-53
2022/04/16 09:40:17;;;;;;;8.27;4.78;;;;;;;10.20;68.48;100968.13;5018502;28;20058;-54
2022/04/16 09:43:04;;;;;;;4.78;2.65;;;;;;;10.45;68.89;100969.75;5014164;28;20065;-53
2022/04/16 09:45:49;;;;;;;2.35;1.40;;;;;;;10.55;69.36;100964.47;5018766;28;20506;-52
2022/04/16 09:48:35;;;;;;;55.83;27.95;;;;;;;9.96;63.62;100975.22;5015172;28;20103;-52
2022/04/16 09:51:24;;;;;;;2.65;1.13;;;;;;;10.19;63.65;100966.38;5024752;28;20372;-51
2022/04/16 09:54:09;;;;;;;4.80;2.70;;;;;;;10.32;66.07;100977.69;5025259;28;20064;-52
2022/04/16 09:57:00;;;;;;;5.05;2.53;;;;;;;10.15;67.61;100972.53;5015629;28;20476;-54
2022/04/16 09:59:52;;;;;;;10.93;5.60;;;;;;;10.88;64.07;100969.44;5015826;28;20049;-53
2022/04/16 10:02:39;;;;;;;16.15;6.95;;;;;;;10.68;62.86;100985.31;5025816;28;20053;-51
2022/04/16 10:05:24;;;;;;;2.55;1.60;;;;;;;10.77;64.77;100980.03;5030769;28;20485;-52
2022/04/16 10:08:10;;;;;;;7.60;4.00;;;;;;;11.02;64.45;100976.31;5020819;28;20144;-54
2022/04/16 10:10:57;;;;;;;18.45;7.50;;;;;;;11.18;64.60;100985.81;5014270;28;20057;-54
2022/04/16 10:13:50;;;;;;;8.65;4.03;;;;;;;11.14;61.31;100978.84;5014873;28;20144;-51
2022/04/16 10:16:54;;;;;;;55.70;20.83;;;;;;;11.14;64.02;100979.72;5015184;28;20954;-52
2022/04/16 10:19:40;;;;;;;3.42;2.35;;;;;;;11.20;61.94;100971.78;5005685;28;20045;-52
2022/04/16 10:22:27;;;;;;;2.38;1.40;;;;;;;11.64;60.26;100988.84;5022447;28;20107;-50
2022/04/16 10:25:11;;;;;;;34.10;11.45;;;;;;;11.77;63.82;100996.59;5016118;28;20111;-51
2022/04/16 10:28:02;;;;;;;3.67;1.58;;;;;;;11.30;58.46;100993.56;5018048;28;20045;-53
2022/04/16 10:30:52;;;;;;;10.40;3.60;;;;;;;10.87;60.82;100991.31;5028275;28;20050;-52
2022/04/16 10:33:37;;;;;;;2.85;1.50;;;;;;;10.71;57.33;100993.16;5022856;28;20068;-52
2022/04/16 10:36:40;;;;;;;3.88;1.80;;;;;;;10.35;56.30;100991.63;5016469;28;20164;-52
2022/04/16 10:39:31;;;;;;;58.13;17.80;;;;;;;10.01;58.26;100998.75;5018503;28;20050;-53
2022/04/16 10:42:15;;;;;;;7.97;2.80;;;;;;;10.82;59.71;100989.59;5016259;28;20058;-52
2022/04/16 10:45:09;;;;;;;56.70;27.65;;;;;;;11.33;59.45;100990.03;5021467;28;20071;-52
2022/04/16 10:47:54;;;;;;;17.25;6.13;;;;;;;11.66;58.98;100975.69;5027190;28;20088;-55
2022/04/16 10:50:39;;;;;;;3.15;2.13;;;;;;;11.53;55.08;100987.22;5020205;28;20049;-54
2022/04/16 10:53:28;;;;;;;5.50;2.20;;;;;;;11.32;56.67;100986.56;5024696;28;20041;-52
2022/04/16 10:56:15;;;;;;;20.95;6.10;;;;;;;10.81;56.14;100988.72;5023561;28;20057;-54
2022/04/16 10:59:00;;;;;;;10.27;4.00;;;;;;;10.96;59.69;100986.00;5026909;28;20128;-53
2022/04/16 11:01:53;;;;;;;68.28;25.85;;;;;;;11.42;60.06;100995.22;5024648;28;20050;-53
2022/04/16 11:04:38;;;;;;;11.82;2.20;;;;;;;11.28;58.93;100991.81;5020244;28;20057;-54
2022/04/16 11:07:23;;;;;;;4.30;2.38;;;;;;;11.18;58.96;100994.56;5026332;28;20488;-52
2022/04/16 11:10:10;;;;;;;9.38;8.25;;;;;;;11.06;58.76;100999.03;5019431;28;20056;-52
2022/04/16 11:12:54;;;;;;;26.98;13.40;;;;;;;11.70;60.29;101001.91;5022668;28;20056;-53
2022/04/16 11:15:40;;;;;;;81.18;41.70;;;;;;;11.99;57.11;101006.00;5017678;28;20123;-54
2022/04/16 11:18:26;;;;;;;20.73;8.65;;;;;;;11.42;55.28;101005.69;5019798;28;20056;-52
2022/04/16 11:21:21;;;;;;;9.65;4.30;;;;;;;11.07;55.72;101006.00;5021795;28;20057;-53
2022/04/16 11:24:06;;;;;;;1.85;1.23;;;;;;;11.32;54.53;101022.41;5028974;28;20049;-53
2022/04/16 11:36:25;;;;;;;2.75;1.70;;;;;;;10.70;54.22;101022.88;5012289;28;20045;-53
2022/04/16 11:39:17;;;;;;;5.05;1.60;;;;;;;10.90;53.93;101033.22;5018094;28;20049;-52
2022/04/16 11:42:10;;;;;;;49.03;23.90;;;;;;;11.32;53.51;101025.91;5012335;28;20053;-52
2022/04/16 11:44:55;;;;;;;17.10;5.80;;;;;;;11.34;54.97;101021.53;5016141;28;20045;-50
2022/04/16 11:47:40;;;;;;;4.15;1.80;;;;;;;11.27;53.24;101025.06;5016536;28;20107;-52
2022/04/16 11:50:25;;;;;;;3.10;1.35;;;;;;;11.81;52.66;101016.69;5020010;28;20053;-52
2022/04/16 11:53:13;;;;;;;13.15;4.47;;;;;;;12.26;54.63;101010.03;5019864;28;20057;-52
2022/04/16 11:55:58;;;;;;;1.75;0.88;;;;;;;12.47;50.51;101010.63;5017929;28;20661;-51
2022/04/16 11:58:48;;;;;;;3.38;1.33;;;;;;;11.80;51.72;101012.31;5021853;28;20041;-52
2022/04/16 12:01:32;;;;;;;3.35;1.92;;;;;;;11.78;52.10;101000.97;5014110;28;20580;-52
2022/04/16 12:04:18;;;;;;;2.15;1.20;;;;;;;11.56;52.37;101026.53;5015538;28;20040;-53
2022/04/16 12:07:17;;;;;;;3.05;1.30;;;;;;;11.77;54.85;101012.34;5015509;28;20141;-53
2022/04/16 12:10:03;;;;;;;13.52;4.68;;;;;;;11.92;53.03;101010.44;5011042;28;21121;-52
2022/04/16 12:12:49;;;;;;;16.95;5.63;;;;;;;11.58;53.86;101007.28;5009341;28;20136;-53
2022/04/16 12:15:34;;;;;;;8.73;3.00;;;;;;;11.55;53.62;101011.69;5011801;28;20566;-52
2022/04/16 12:18:19;;;;;;;7.57;2.47;;;;;;;11.54;55.01;101017.84;5014846;28;20060;-52
2022/04/16 12:21:12;;;;;;;10.23;3.42;;;;;;;11.81;52.72;101014.06;5008009;28;21032;-51
2022/04/16 12:24:04;;;;;;;9.38;3.92;;;;;;;12.23;52.76;101017.94;5019132;28;20054;-52
2022/04/16 12:26:49;;;;;;;49.42;17.23;;;;;;;11.89;52.69;101017.47;5013507;28;20061;-52
2022/04/16 12:29:33;;;;;;;16.33;6.63;;;;;;;11.76;48.18;101024.56;5011934;28;20413;-52
2022/04/16 12:32:26;;;;;;;10.10;6.65;;;;;;;11.69;49.81;101015.03;5009003;28;20108;-52
2022/04/16 12:35:11;;;;;;;5.57;4.05;;;;;;;12.07;48.93;101013.78;5010088;28;20061;-52
2022/04/16 12:37:57;;;;;;;16.73;8.52;;;;;;;11.74;49.56;101020.25;5013294;28;20953;-52
2022/04/16 12:40:42;;;;;;;24.70;15.82;;;;;;;11.65;50.25;101022.06;5009762;28;20057;-52
2022/04/16 12:43:26;;;;;;;2.78;1.38;;;;;;;12.17;49.82;101028.53;5008129;28;20049;-52
2022/04/16 12:46:11;;;;;;;15.30;5.95;;;;;;;11.59;50.17;101030.00;5008265;28;20057;-52
2022/04/16 12:48:57;;;;;;;6.63;1.85;;;;;;;12.30;50.79;101014.34;5018254;28;20530;-52
2022/04/16 12:51:47;;;;;;;5.07;1.60;;;;;;;12.14;49.40;101023.31;5021004;28;20053;-51
2022/04/16 12:54:35;;;;;;;3.20;1.10;;;;;;;11.75;49.25;101022.84;5019237;28;20183;-51
2022/04/16 12:57:19;;;;;;;6.63;3.20;;;;;;;11.76;50.13;101027.19;5019732;28;20053;-52
2022/04/16 13:00:07;;;;;;;2.60;1.30;;;;;;;12.08;50.17;101026.00;5008962;28;20562;-52
2022/04/16 13:02:51;;;;;;;1.73;1.10;;;;;;;12.01;49.52;101029.59;5022307;28;20048;-52
2022/04/16 13:05:36;;;;;;;2.88;1.20;;;;;;;11.58;49.56;101019.53;5015604;28;20488;-52
2022/04/16 13:08:20;;;;;;;7.72;2.47;;;;;;;11.18;50.58;101028.66;5024266;28;20042;-53
2022/04/16 13:11:07;;;;;;;6.57;2.15;;;;;;;10.86;50.86;101028.88;5015278;28;20396;-51
2022/04/16 13:13:52;;;;;;;9.77;3.88;;;;;;;11.66;51.41;101022.94;5021167;28;20255;-51